Domov               UVHVVR             MKGP            O straneh              
ZDRAVSTVENO VARSTVO RASTLIN
  MREŽA AGROMET. POSTAJ
 ► PROGNOSTIČNA OBVESTILA
AGROMETEOROLOŠKI PODATKI -
ARSO
OBVLADOVANJE TVEGANJ ZARADI
NEUGODNIH VREMENSKIH RAZMER
  ► NARAVNE NESREČE
  ► SUŠA/MOČA
  ► NAMAKANJE
  ► ŽLED (gozdarstvo)
KARTOGRAFSKI PRIKAZI
SPLETNE POVEZAVE
PROJEKTI IN PUBLIKACIJE

AGROMETEOROLOŠKA MREŽA: VREMENSKE POSTAJE IN FENOLOŠKA OPAZOVANJA

Pregled podatkov za lokacijo Šentjakob, meteorološka postaja 49993

Pregled senzorjev na lokaciji

ID Ime Zadnja
vrednost
Datum
zadnje
spremembe
Tip
senzorja
4182 Omočenost lista 20 cm (U) 10 U 18.3.2019 23:00 A730WET
4015 Padavine (mm) 0 mm 18.3.2019 23:00 Generic 0.2 mm
4010 Relativna vlaga 20 cm (% RH) 92,48 % RH 18.3.2019 23:00 Generic 0 - 100 %
4012 Relativna vlaga 2 m (% RH) 91,72 % RH 18.3.2019 23:00 Generic 0 - 100 %
4013 Temperatura 2 m (°C) 3 °C 18.3.2019 22:59 Generic -40 - +60 °C
4011 Temperatura 20 cm (°C) 2,9 °C 18.3.2019 23:00 Generic -40 - +60 °C

Pregled podatkov zadnjih 24 ur

Zap.
št.
Datum in čas Šentjakob
Omočenost
lista
20
cm
Padavine Relativna
vlaga
20
cm
Relativna
vlaga
2
m
Temperatura
2
m
Temperatura
20
cm
1 18.3.2019 23:00
2 18.3.2019 22:30
3 18.3.2019 22:00 10 0 91,7 92,5 3 2,9
4 18.3.2019 21:30 10 0 92,9 93,3 2,7 2,7
5 18.3.2019 21:00 10 0 92,4 93,1 2,8 2,6
6 18.3.2019 20:30 10 0 91 92,3 2,7 2,6
7 18.3.2019 20:00 10 0 89,9 91,4 2,9 2,8
8 18.3.2019 19:30 10 0 89,9 91,9 3 2,9
9 18.3.2019 19:00 10 0,2 89,8 92 3,1 3
10 18.3.2019 18:30 10 0 88,8 91 3,2 3,1
11 18.3.2019 18:00 10 0 88,3 90,8 3,2 3,2
12 18.3.2019 17:30 10 0 89,6 92 3,1 3,1
13 18.3.2019 17:00 10 0 89,2 92,1 3 3,1
14 18.3.2019 16:30 10 0 90 92,4 2,9 3,1
15 18.3.2019 16:00 10 0 90,6 93,2 2,8 3
16 18.3.2019 15:30 10 0 94 94,6 2,4 2,8
17 18.3.2019 15:00 10 0 94,1 94,7 2,3 2,6
18 18.3.2019 14:30 10 0,2 95 95,3 1,7 2,1
19 18.3.2019 14:00 10 1,2 95,3 95,7 1,2 1,5
20 18.3.2019 13:30 10 1,8 96 95,5 0,6 0,6
21 18.3.2019 13:00 10 0,4 95,7 95,2 0,5 0,5
22 18.3.2019 12:30 9 1,4 93,6 93,9 1,3 1,4
23 18.3.2019 12:00 10 1 91,3 93,3 2,9 3,1
24 18.3.2019 11:30 10 0,2 91,2 93,2 3,2 3,5
25 18.3.2019 11:00 9 1,2 91,4 93,4 3,3 3,6
26 18.3.2019 10:30 9 1,6 94,1 94,4 3,3 3,5
27 18.3.2019 10:00 10 1,6 92,6 93,5 3,5 3,7
28 18.3.2019 09:30 10 1 89,7 92,2 4,6 4,6
29 18.3.2019 09:00 10 0,2 89 92,2 5,9 5,7
30 18.3.2019 08:30 10 1,6 89,8 91,9 6,6 6,4
31 18.3.2019 08:00 10 2,4 82,7 84,4 8,3 8,1
32 18.3.2019 07:30 10 0 83,2 85,2 9,4 9,1
33 18.3.2019 07:00 10 0 89,8 91,6 9,7 9,1
34 18.3.2019 06:30 10 0 91,2 92,6 9,5 8,7
35 18.3.2019 06:00 10 0 91 91,3 9,6 9,2
36 18.3.2019 05:30 10 0 91,9 92,3 9,5 9
37 18.3.2019 05:00 10 0 91,4 92,4 9,8 9,2
38 18.3.2019 04:30 10 0 92,7 93 9,5 9
39 18.3.2019 04:00 10 0 91,3 92,1 9,8 9,3
40 18.3.2019 03:30 10 0 90 91,7 10 9,4
41 18.3.2019 03:00 10 0 89,4 90,8 10,1 9,6
42 18.3.2019 02:30 10 0 89,1 90,5 10,2 9,8
43 18.3.2019 02:00 10 0 88,5 90 10,3 9,8
44 18.3.2019 01:30 10 0 85,4 86,1 10,6 10,3
45 18.3.2019 01:00 2 0 75 76,5 11,6 11,2
46 18.3.2019 00:30 0 0 72,7 74,2 11,8 11,4
47 18.3.2019 00:00 0 0 71,5 73,1 11,9 11,5
48 17.3.2019 23:30 0 0 71,1 72,5 11,9 11,5
© 2011 Ministrstvo za kmetijstvo, gozdarstvo in prehrano. Vse pravice pridržane.